Time;durP1;ratioP1;P1;durP2;ratioP2;P2;SDS_P1;SDS_P2;PMS_P1;PMS_P2;Temp;Humidity;BMP_temperature;BMP_pressure;BME280_temperature;BME280_humidity;BME280_pressure;Samples;Min_cycle;Max_cycle;Signal;HPM_P1;HPM_P2
2022/07/10 00:02:11;;;;;;;0.23;0.23;;;16.80;99.90;;;;;;5034310;28;20296;-82
2022/07/10 00:04:37;;;;;;;0.60;0.60;;;16.70;99.90;;;;;;5037609;28;20647;-82
2022/07/10 00:07:03;;;;;;;0.20;0.20;;;16.60;99.90;;;;;;5035387;28;20587;-83
2022/07/10 00:09:29;;;;;;;0.23;0.23;;;16.50;99.90;;;;;;5036885;28;20189;-82
2022/07/10 00:11:55;;;;;;;0.20;0.20;;;16.50;99.90;;;;;;5037635;28;20235;-83
2022/07/10 00:14:20;;;;;;;0.20;0.20;;;16.50;99.90;;;;;;5037043;28;20342;-82
2022/07/10 00:16:46;;;;;;;0.20;0.20;;;16.50;99.90;;;;;;5036992;28;20193;-82
2022/07/10 00:19:12;;;;;;;0.30;0.27;;;16.60;99.90;;;;;;5036338;28;20230;-82
2022/07/10 00:21:38;;;;;;;0.10;0.10;;;16.60;99.90;;;;;;5033485;28;20211;-83
2022/07/10 00:24:04;;;;;;;0.50;0.50;;;16.60;99.90;;;;;;5035155;28;20644;-82
2022/07/10 00:26:29;;;;;;;0.30;0.30;;;16.50;99.90;;;;;;5037358;28;21036;-82
2022/07/10 00:28:55;;;;;;;0.63;0.47;;;16.60;99.90;;;;;;5036238;28;20196;-83
2022/07/10 00:31:22;;;;;;;0.30;0.30;;;16.60;99.90;;;;;;5041857;28;20218;-82
2022/07/10 00:33:48;;;;;;;0.10;0.10;;;16.60;99.90;;;;;;5057592;28;20188;-82
2022/07/10 00:36:14;;;;;;;1.43;0.33;;;16.60;99.90;;;;;;5037918;28;20193;-83
2022/07/10 00:38:39;;;;;;;3.30;0.70;;;16.50;99.90;;;;;;5036428;28;20189;-82
2022/07/10 00:41:05;;;;;;;0.33;0.33;;;16.50;99.90;;;;;;5036149;28;20217;-82
2022/07/10 00:43:54;;;;;;;0.20;0.20;;;16.50;99.90;;;;;;5034848;28;20190;-82
2022/07/10 00:46:20;;;;;;;0.43;0.43;;;16.40;99.90;;;;;;5034718;28;20188;-82
2022/07/10 00:48:47;;;;;;;0.37;0.30;;;16.40;99.90;;;;;;5035158;28;20622;-82
2022/07/10 00:51:14;;;;;;;0.20;0.20;;;16.40;99.90;;;;;;5037842;28;20233;-82
2022/07/10 00:53:40;;;;;;;1.10;1.07;;;16.30;99.90;;;;;;5040941;28;20193;-83
2022/07/10 00:56:06;;;;;;;0.30;0.30;;;16.30;99.90;;;;;;5039239;28;20189;-82
2022/07/10 00:58:34;;;;;;;0.20;0.20;;;16.20;99.90;;;;;;5047794;28;20182;-82
2022/07/10 01:01:01;;;;;;;0.53;0.50;;;16.20;99.90;;;;;;5041880;28;20209;-82
2022/07/10 01:03:26;;;;;;;0.10;0.10;;;16.20;99.90;;;;;;5038406;28;20210;-82
2022/07/10 01:05:52;;;;;;;0.10;0.10;;;16.20;99.90;;;;;;5036030;28;20209;-83
2022/07/10 01:08:18;;;;;;;0.10;0.10;;;16.20;99.90;;;;;;5034912;28;20294;-82
2022/07/10 01:10:45;;;;;;;0.20;0.20;;;16.20;99.90;;;;;;5036672;28;20202;-83
2022/07/10 01:13:10;;;;;;;0.30;0.30;;;16.10;99.90;;;;;;5037736;28;20243;-82
2022/07/10 01:15:37;;;;;;;0.20;0.20;;;16.20;99.90;;;;;;5036983;28;20189;-82
2022/07/10 01:18:03;;;;;;;0.40;0.40;;;16.00;99.90;;;;;;5036479;28;20193;-82
2022/07/10 01:20:32;;;;;;;1.03;0.40;;;16.10;99.90;;;;;;5035823;28;20221;-82
2022/07/10 01:22:58;;;;;;;0.20;0.20;;;16.10;99.90;;;;;;5041880;28;20200;-82
2022/07/10 01:25:24;;;;;;;0.33;0.33;;;15.90;99.90;;;;;;5036515;28;20185;-82
2022/07/10 01:27:50;;;;;;;1.33;0.13;;;15.90;99.90;;;;;;5036364;28;20538;-81
2022/07/10 01:30:17;;;;;;;0.40;0.40;;;16.00;99.90;;;;;;5041799;28;20183;-82
2022/07/10 01:32:43;;;;;;;0.30;0.20;;;16.00;99.90;;;;;;5035463;28;20255;-82
2022/07/10 01:35:10;;;;;;;0.30;0.30;;;16.00;99.90;;;;;;5035967;28;20189;-82
2022/07/10 01:37:35;;;;;;;0.10;0.10;;;16.00;99.90;;;;;;5034283;28;20186;-82
2022/07/10 01:40:01;;;;;;;0.20;0.20;;;16.10;99.90;;;;;;5034796;28;20267;-82
2022/07/10 01:42:27;;;;;;;0.20;0.20;;;16.20;99.90;;;;;;5042760;28;20260;-83
2022/07/10 01:44:53;;;;;;;0.53;0.53;;;16.30;99.90;;;;;;5035091;28;20745;-82
2022/07/10 01:47:19;;;;;;;0.20;0.20;;;16.20;99.90;;;;;;5036445;28;20264;-83
2022/07/10 01:49:45;;;;;;;0.20;0.20;;;16.20;99.90;;;;;;5033807;28;20284;-82
2022/07/10 01:52:10;;;;;;;0.20;0.20;;;16.20;99.90;;;;;;5034162;28;20216;-82
2022/07/10 01:54:36;;;;;;;0.10;0.10;;;16.20;99.90;;;;;;5036637;28;20599;-82
2022/07/10 01:57:02;;;;;;;0.97;0.97;;;16.10;99.90;;;;;;5033546;28;20258;-82
2022/07/10 01:59:27;;;;;;;0.30;0.30;;;16.10;99.90;;;;;;5033833;28;20240;-82
2022/07/10 02:01:53;;;;;;;0.63;0.63;;;16.10;99.90;;;;;;5035515;28;20256;-82
2022/07/10 02:07:03;;;;;;;0.27;0.27;;;15.90;99.90;;;;;;5034617;28;20208;-82
2022/07/10 02:09:28;;;;;;;0.20;0.20;;;15.80;99.90;;;;;;5035613;28;20522;-83
2022/07/10 02:11:54;;;;;;;4.37;0.30;;;15.80;99.90;;;;;;5035042;28;20234;-82
2022/07/10 02:14:19;;;;;;;0.20;0.20;;;15.80;99.90;;;;;;5035112;28;20189;-82
2022/07/10 02:16:45;;;;;;;0.20;0.20;;;15.80;99.90;;;;;;5036243;28;20196;-82
2022/07/10 02:19:11;;;;;;;0.90;0.90;;;15.90;99.90;;;;;;5036819;28;20255;-82
2022/07/10 02:21:36;;;;;;;0.87;0.70;;;15.80;99.90;;;;;;5034002;28;20212;-83
2022/07/10 02:24:02;;;;;;;0.10;0.10;;;15.80;99.90;;;;;;5032978;28;20195;-83
2022/07/10 02:26:28;;;;;;;0.50;0.50;;;15.60;99.90;;;;;;5037632;28;20188;-83
2022/07/10 02:28:53;;;;;;;0.20;0.20;;;15.60;99.90;;;;;;5035734;28;20620;-83
2022/07/10 02:31:19;;;;;;;0.37;0.37;;;15.60;99.90;;;;;;5037072;28;20221;-83
2022/07/10 02:33:44;;;;;;;0.47;0.20;;;15.70;99.90;;;;;;5036769;28;20198;-83
2022/07/10 02:36:10;;;;;;;0.30;0.30;;;15.80;99.90;;;;;;5038310;28;20291;-83
2022/07/10 02:38:35;;;;;;;0.10;0.10;;;15.70;99.90;;;;;;5038203;28;21150;-83
2022/07/10 02:41:01;;;;;;;0.83;0.60;;;15.70;99.90;;;;;;5035689;28;20232;-83
2022/07/10 02:43:26;;;;;;;0.97;0.97;;;15.80;99.90;;;;;;5035477;28;20188;-83
2022/07/10 02:45:52;;;;;;;0.50;0.20;;;15.80;99.90;;;;;;5037782;28;20199;-83
2022/07/10 02:48:18;;;;;;;0.10;0.10;;;15.70;99.90;;;;;;5038014;28;20216;-83
2022/07/10 02:50:44;;;;;;;0.10;0.10;;;15.60;99.90;;;;;;5043171;28;20231;-83
2022/07/10 02:53:10;;;;;;;0.13;0.13;;;15.60;99.90;;;;;;5036396;28;20188;-83
2022/07/10 02:55:35;;;;;;;0.40;0.40;;;15.60;99.90;;;;;;5036415;28;20262;-83
2022/07/10 02:58:01;;;;;;;1.03;0.63;;;15.40;99.90;;;;;;5037089;28;20220;-83
2022/07/10 03:00:27;;;;;;;0.50;0.50;;;15.40;99.90;;;;;;5039565;28;20215;-83
2022/07/10 03:02:54;;;;;;;0.10;0.10;;;15.30;99.90;;;;;;5037936;28;20188;-83
2022/07/10 03:05:19;;;;;;;0.10;0.10;;;15.40;99.90;;;;;;5034795;28;20239;-83
2022/07/10 03:07:45;;;;;;;0.20;0.20;;;15.20;99.90;;;;;;5035436;28;20183;-83
2022/07/10 03:10:11;;;;;;;0.10;0.10;;;15.10;99.90;;;;;;5031667;28;20246;-83
2022/07/10 03:12:36;;;;;;;0.50;0.50;;;15.00;99.90;;;;;;5035615;28;20215;-83
2022/07/10 03:15:03;;;;;;;0.33;0.33;;;15.10;99.90;;;;;;5042906;28;20190;-82
2022/07/10 03:17:29;;;;;;;0.33;0.33;;;14.60;99.90;;;;;;5035352;28;20629;-83
2022/07/10 03:19:54;;;;;;;1.40;0.40;;;14.70;99.90;;;;;;5035916;28;20214;-83
2022/07/10 03:22:20;;;;;;;0.10;0.10;;;14.70;99.90;;;;;;5036511;28;20216;-83
2022/07/10 03:24:46;;;;;;;0.20;0.20;;;14.50;99.90;;;;;;5038151;28;20178;-82
2022/07/10 03:27:13;;;;;;;0.10;0.10;;;14.60;99.90;;;;;;5058816;28;20180;-83
2022/07/10 03:29:39;;;;;;;0.27;0.27;;;14.60;99.90;;;;;;5036300;28;20290;-83
2022/07/10 03:32:05;;;;;;;0.37;0.37;;;14.50;99.90;;;;;;5036813;28;20621;-83
2022/07/10 03:34:32;;;;;;;0.50;0.50;;;14.50;99.90;;;;;;5034808;28;20185;-83
2022/07/10 03:36:58;;;;;;;0.20;0.20;;;14.50;99.90;;;;;;5036425;28;20204;-83
2022/07/10 03:39:23;;;;;;;0.10;0.10;;;14.30;99.90;;;;;;5043654;28;20215;-83
2022/07/10 03:41:49;;;;;;;0.30;0.13;;;14.20;99.90;;;;;;5038530;28;20286;-82
2022/07/10 03:44:14;;;;;;;0.10;0.10;;;14.20;99.90;;;;;;5035820;28;20206;-83
2022/07/10 03:46:40;;;;;;;0.20;0.20;;;14.20;99.90;;;;;;5035808;28;20182;-82
2022/07/10 03:49:05;;;;;;;0.10;0.10;;;14.50;99.90;;;;;;5035123;28;20192;-82
2022/07/10 03:51:31;;;;;;;0.07;0.07;;;15.10;99.90;;;;;;5035746;28;20584;-82
2022/07/10 03:53:56;;;;;;;0.17;0.17;;;15.80;99.90;;;;;;5036841;28;20193;-83
2022/07/10 03:59:06;;;;;;;0.10;0.10;;;17.50;99.90;;;;;;5034854;28;20208;-83
2022/07/10 04:01:31;;;;;;;0.20;0.20;;;18.20;99.90;;;;;;5037010;28;20773;-83
2022/07/10 04:03:57;;;;;;;1.10;0.53;;;19.00;99.90;;;;;;5035552;28;20250;-82
2022/07/10 04:06:22;;;;;;;0.33;0.20;;;19.50;99.90;;;;;;5036417;28;20182;-82
2022/07/10 04:08:48;;;;;;;0.20;0.20;;;20.20;99.90;;;;;;5036262;28;20185;-83
2022/07/10 04:11:14;;;;;;;0.20;0.20;;;20.10;99.90;;;;;;5034973;28;20710;-83
2022/07/10 04:13:39;;;;;;;0.20;0.20;;;20.60;99.90;;;;;;5036277;28;20204;-82
2022/07/10 04:16:05;;;;;;;1.37;1.27;;;21.30;99.90;;;;;;5033130;28;20189;-83
2022/07/10 04:18:31;;;;;;;0.20;0.20;;;21.60;99.90;;;;;;5036808;28;20651;-83
2022/07/10 04:20:56;;;;;;;0.10;0.10;;;22.00;99.90;;;;;;5034754;28;20213;-82
2022/07/10 04:23:22;;;;;;;0.10;0.10;;;21.70;99.90;;;;;;5041111;28;20187;-83
2022/07/10 04:25:47;;;;;;;0.20;0.20;;;21.60;99.90;;;;;;5033117;28;20174;-82
2022/07/10 04:28:13;;;;;;;0.50;0.17;;;21.50;99.90;;;;;;5035383;28;20276;-83
2022/07/10 04:30:38;;;;;;;0.53;0.27;;;19.80;99.90;;;;;;5035910;28;20209;-82
2022/07/10 04:33:04;;;;;;;0.10;0.10;;;18.60;99.90;;;;;;5034520;28;20247;-83
2022/07/10 04:35:29;;;;;;;0.60;0.37;;;17.50;99.90;;;;;;5035343;28;20192;-83
2022/07/10 04:37:55;;;;;;;0.23;0.23;;;16.70;99.90;;;;;;5034469;28;20761;-82
2022/07/10 04:40:20;;;;;;;0.10;0.10;;;16.20;99.90;;;;;;5036651;28;20208;-83
2022/07/10 04:42:46;;;;;;;4.53;0.23;;;16.20;99.90;;;;;;5037179;28;20218;-82
2022/07/10 04:45:11;;;;;;;0.00;0.00;;;16.10;99.90;;;;;;5034738;28;20588;-82
2022/07/10 04:47:37;;;;;;;0.10;0.10;;;16.10;99.90;;;;;;5036527;28;20198;-81
2022/07/10 04:50:03;;;;;;;0.23;0.23;;;16.20;99.90;;;;;;5032817;28;20194;-82
2022/07/10 04:52:28;;;;;;;0.20;0.20;;;16.10;99.90;;;;;;5037718;28;20214;-82
2022/07/10 04:54:54;;;;;;;0.73;0.20;;;15.90;99.90;;;;;;5036567;28;20284;-82
2022/07/10 04:57:19;;;;;;;0.20;0.20;;;16.10;99.90;;;;;;5033185;28;20194;-82
2022/07/10 04:59:45;;;;;;;0.37;0.30;;;16.00;99.90;;;;;;5037025;28;20213;-82
2022/07/10 05:02:10;;;;;;;0.10;0.10;;;16.10;99.90;;;;;;5034545;28;20204;-82
2022/07/10 05:04:36;;;;;;;0.20;0.20;;;15.80;99.90;;;;;;5035968;28;20195;-83
2022/07/10 05:07:01;;;;;;;0.47;0.33;;;15.90;99.90;;;;;;5056591;28;20235;-83
2022/07/10 05:09:27;;;;;;;2.73;0.30;;;16.00;99.90;;;;;;5035444;28;20197;-82
2022/07/10 05:11:52;;;;;;;0.30;0.30;;;15.80;99.90;;;;;;5034924;28;20212;-82
2022/07/10 05:14:19;;;;;;;0.10;0.10;;;15.90;99.90;;;;;;5032373;28;20205;-82
2022/07/10 05:16:44;;;;;;;0.30;0.30;;;15.60;99.90;;;;;;5036589;28;20193;-81
2022/07/10 05:19:10;;;;;;;0.10;0.10;;;15.70;99.90;;;;;;5035275;28;20174;-81
2022/07/10 05:21:36;;;;;;;0.37;0.37;;;16.10;99.90;;;;;;5038661;28;20285;-81
2022/07/10 05:24:01;;;;;;;0.20;0.20;;;16.20;99.90;;;;;;5039306;28;20608;-82
2022/07/10 05:26:27;;;;;;;0.10;0.10;;;16.20;99.90;;;;;;5038160;28;20189;-81
2022/07/10 05:28:52;;;;;;;0.10;0.10;;;16.10;99.90;;;;;;5037864;28;20187;-82
2022/07/10 05:31:18;;;;;;;0.17;0.17;;;16.10;99.90;;;;;;5036313;28;20217;-81
2022/07/10 05:33:43;;;;;;;0.93;0.93;;;16.50;99.90;;;;;;5035283;28;20181;-81
2022/07/10 05:36:09;;;;;;;0.13;0.13;;;16.50;99.90;;;;;;5034293;28;20494;-81
2022/07/10 05:38:35;;;;;;;0.33;0.33;;;16.50;99.90;;;;;;5041787;28;20190;-80
2022/07/10 05:41:01;;;;;;;0.20;0.20;;;16.70;99.90;;;;;;5032160;28;20220;-81
2022/07/10 05:43:26;;;;;;;1.07;0.47;;;16.60;99.90;;;;;;5033295;28;20612;-81
2022/07/10 05:45:53;;;;;;;0.10;0.10;;;16.70;99.90;;;;;;5034932;28;21113;-84
2022/07/10 05:48:19;;;;;;;0.20;0.20;;;16.80;99.90;;;;;;5033632;28;20281;-83
2022/07/10 05:50:45;;;;;;;0.20;0.20;;;16.70;99.90;;;;;;5034027;28;20213;-83
2022/07/10 05:53:10;;;;;;;0.10;0.10;;;16.50;99.90;;;;;;5032783;28;20408;-82
2022/07/10 05:55:36;;;;;;;0.20;0.20;;;16.10;99.90;;;;;;5038217;28;20190;-83
2022/07/10 05:58:02;;;;;;;0.30;0.23;;;16.20;99.90;;;;;;5037500;28;20291;-83
2022/07/10 06:00:27;;;;;;;0.40;0.30;;;16.10;99.90;;;;;;5039393;28;20196;-83
2022/07/10 06:02:53;;;;;;;0.77;0.77;;;16.30;99.90;;;;;;5039920;28;20197;-83
2022/07/10 06:05:18;;;;;;;0.10;0.10;;;16.60;99.90;;;;;;5040925;28;20326;-83
2022/07/10 06:07:44;;;;;;;0.10;0.10;;;16.70;99.90;;;;;;5038881;28;20182;-83
2022/07/10 06:10:09;;;;;;;4.10;1.67;;;16.80;99.90;;;;;;5039299;28;20203;-83
2022/07/10 06:12:37;;;;;;;3.30;0.30;;;16.60;99.90;;;;;;5039754;28;20220;-83
2022/07/10 06:15:03;;;;;;;0.10;0.10;;;16.30;99.90;;;;;;5039928;28;20636;-83
2022/07/10 06:17:28;;;;;;;0.10;0.10;;;15.90;99.90;;;;;;5041330;28;20203;-83
2022/07/10 06:19:54;;;;;;;0.20;0.20;;;16.00;99.90;;;;;;5036639;28;20210;-83
2022/07/10 06:22:32;;;;;;;2.00;0.93;;;16.40;99.90;;;;;;5039732;28;20212;-83
2022/07/10 06:25:03;;;;;;;0.20;0.20;;;16.30;99.90;;;;;;5039951;28;20236;-83
2022/07/10 06:27:28;;;;;;;2.73;0.50;;;16.20;99.90;;;;;;5038792;28;20188;-83
2022/07/10 06:29:55;;;;;;;0.40;0.40;;;16.40;99.90;;;;;;5037361;28;20210;-83
2022/07/10 06:32:21;;;;;;;0.10;0.10;;;16.50;99.90;;;;;;5038042;28;21084;-83
2022/07/10 06:34:47;;;;;;;0.20;0.20;;;16.40;99.90;;;;;;5037035;28;20193;-83
2022/07/10 06:37:12;;;;;;;0.37;0.20;;;16.60;99.90;;;;;;5039560;28;20202;-83
2022/07/10 06:39:38;;;;;;;1.27;0.13;;;16.40;99.90;;;;;;5037766;28;20198;-83
2022/07/10 06:42:05;;;;;;;0.10;0.10;;;16.60;99.90;;;;;;5039361;28;20206;-83
2022/07/10 06:44:31;;;;;;;0.10;0.10;;;16.80;99.90;;;;;;5036977;28;20208;-82
2022/07/10 06:49:43;;;;;;;0.40;0.40;;;16.60;99.90;;;;;;5038482;28;20258;-83
2022/07/10 06:52:09;;;;;;;0.33;0.33;;;17.10;99.90;;;;;;5040719;28;20212;-82
2022/07/10 06:54:35;;;;;;;0.10;0.10;;;17.20;99.90;;;;;;5057428;28;20195;-82
2022/07/10 06:57:01;;;;;;;0.10;0.10;;;16.50;99.90;;;;;;5037980;28;20238;-82
2022/07/10 06:59:27;;;;;;;0.17;0.17;;;16.70;99.90;;;;;;5035704;28;20220;-82
2022/07/10 07:01:52;;;;;;;2.10;0.93;;;16.50;99.90;;;;;;5036051;28;20229;-81
2022/07/10 07:04:18;;;;;;;1.90;0.37;;;16.40;99.90;;;;;;5037072;28;20280;-81
2022/07/10 07:06:43;;;;;;;0.47;0.47;;;16.40;99.90;;;;;;5039402;28;20185;-81
2022/07/10 07:09:09;;;;;;;0.10;0.10;;;16.10;99.90;;;;;;5039645;28;20243;-81
2022/07/10 07:11:34;;;;;;;0.77;0.40;;;16.50;99.90;;;;;;5041573;28;20210;-82
2022/07/10 07:14:00;;;;;;;0.20;0.20;;;16.40;99.90;;;;;;5039838;28;20560;-82
2022/07/10 07:16:38;;;;;;;0.20;0.20;;;16.40;99.90;;;;;;5038975;28;20254;-81
2022/07/10 07:19:05;;;;;;;0.20;0.20;;;16.50;99.90;;;;;;5039938;28;20214;-82
2022/07/10 07:24:18;;;;;;;0.27;0.27;;;17.40;99.90;;;;;;5040040;28;20830;-82
2022/07/10 07:26:47;;;;;;;0.47;0.40;;;17.50;99.90;;;;;;5037500;28;20185;-82
2022/07/10 07:29:17;;;;;;;0.10;0.10;;;17.60;99.90;;;;;;5037924;28;20276;-82
2022/07/10 07:31:42;;;;;;;0.20;0.20;;;17.70;99.90;;;;;;5034971;28;20205;-82
2022/07/10 07:34:08;;;;;;;0.10;0.10;;;17.10;99.90;;;;;;5037674;28;20181;-81
2022/07/10 07:36:34;;;;;;;0.17;0.17;;;16.90;99.90;;;;;;5036052;28;20228;-82
2022/07/10 07:39:00;;;;;;;0.50;0.20;;;17.40;99.90;;;;;;5045068;28;20919;-82
2022/07/10 07:41:25;;;;;;;0.10;0.10;;;17.70;99.90;;;;;;5040326;28;20288;-82
2022/07/10 07:43:52;;;;;;;0.20;0.20;;;17.80;99.90;;;;;;5037680;28;20584;-82
2022/07/10 07:46:18;;;;;;;0.20;0.20;;;17.10;99.90;;;;;;5038304;28;20178;-82
2022/07/10 07:48:44;;;;;;;0.10;0.10;;;17.40;99.90;;;;;;5037434;28;20209;-82
2022/07/10 07:51:09;;;;;;;0.10;0.10;;;17.80;99.90;;;;;;5037752;28;20237;-82
2022/07/10 07:53:35;;;;;;;0.20;0.10;;;17.80;99.90;;;;;;5037898;28;20190;-82
2022/07/10 07:56:00;;;;;;;0.23;0.23;;;18.20;99.90;;;;;;5036381;28;20188;-82
2022/07/10 07:58:26;;;;;;;0.30;0.17;;;18.40;99.90;;;;;;5036859;28;20685;-82
2022/07/10 08:00:52;;;;;;;0.20;0.20;;;19.00;99.90;;;;;;5034228;28;20692;-82
2022/07/10 08:03:17;;;;;;;0.10;0.10;;;18.90;99.90;;;;;;5036552;28;20590;-82
2022/07/10 08:05:43;;;;;;;0.20;0.20;;;18.40;99.90;;;;;;5037948;28;20177;-82
2022/07/10 08:08:09;;;;;;;0.30;0.30;;;18.10;99.90;;;;;;5037355;28;20185;-82
2022/07/10 08:10:36;;;;;;;0.10;0.10;;;18.40;99.90;;;;;;5038186;28;20619;-82
2022/07/10 08:13:03;;;;;;;0.40;0.20;;;18.60;99.90;;;;;;5036400;28;20712;-82
2022/07/10 08:15:29;;;;;;;0.10;0.10;;;18.40;99.90;;;;;;5045414;28;20185;-82
2022/07/10 08:17:57;;;;;;;0.20;0.20;;;18.40;99.90;;;;;;5034728;28;20194;-82
2022/07/10 08:20:24;;;;;;;0.63;0.30;;;18.00;99.90;;;;;;5035243;28;20202;-82
2022/07/10 08:22:49;;;;;;;0.10;0.10;;;18.00;99.90;;;;;;5035270;28;20190;-81
2022/07/10 08:25:15;;;;;;;0.10;0.10;;;17.80;99.90;;;;;;5035826;28;20196;-81
2022/07/10 08:27:41;;;;;;;0.33;0.33;;;17.50;99.90;;;;;;5036414;28;20178;-82
2022/07/10 08:30:08;;;;;;;0.40;0.40;;;17.80;99.90;;;;;;5034880;28;20207;-82
2022/07/10 08:32:35;;;;;;;0.10;0.10;;;18.00;99.90;;;;;;5036983;28;20202;-82
2022/07/10 08:35:01;;;;;;;0.43;0.43;;;18.10;99.90;;;;;;5036917;28;21185;-82
2022/07/10 08:37:27;;;;;;;0.20;0.20;;;18.40;99.90;;;;;;5035029;28;20183;-82
2022/07/10 08:39:52;;;;;;;0.63;0.30;;;19.10;99.90;;;;;;5036783;28;20213;-82
2022/07/10 08:42:18;;;;;;;0.20;0.20;;;19.10;99.90;;;;;;5035534;28;20225;-82
2022/07/10 08:44:44;;;;;;;0.20;0.20;;;19.70;99.90;;;;;;5035178;28;20202;-82
2022/07/10 08:47:13;;;;;;;0.47;0.47;;;20.20;99.90;;;;;;5033887;28;20201;-82
2022/07/10 08:49:46;;;;;;;0.30;0.30;;;20.30;99.90;;;;;;5043322;28;20190;-83
2022/07/10 08:52:29;;;;;;;0.20;0.20;;;20.60;99.90;;;;;;5054645;28;20210;-84
2022/07/10 08:54:55;;;;;;;0.43;0.43;;;20.60;99.90;;;;;;5035211;28;20830;-83
2022/07/10 08:57:22;;;;;;;0.10;0.10;;;20.10;99.90;;;;;;5035939;28;20193;-83
2022/07/10 08:59:48;;;;;;;0.20;0.20;;;19.10;99.90;;;;;;5036812;28;20209;-83
2022/07/10 09:02:13;;;;;;;1.17;0.40;;;19.00;99.90;;;;;;5034779;28;20247;-82
2022/07/10 09:04:39;;;;;;;0.20;0.20;;;18.70;99.90;;;;;;5035221;28;20205;-81
2022/07/10 09:07:05;;;;;;;0.43;0.43;;;19.10;99.90;;;;;;5035761;28;20182;-84
2022/07/10 09:09:30;;;;;;;0.37;0.37;;;19.10;99.90;;;;;;5035718;28;20186;-83
2022/07/10 09:11:57;;;;;;;0.20;0.20;;;19.50;99.90;;;;;;5032409;28;20255;-83
2022/07/10 09:14:25;;;;;;;0.20;0.20;;;19.40;99.90;;;;;;5031041;28;20659;-83
2022/07/10 09:16:51;;;;;;;0.20;0.20;;;19.70;99.90;;;;;;5031937;28;20224;-83
2022/07/10 09:19:21;;;;;;;0.20;0.20;;;19.50;99.90;;;;;;5034833;28;20193;-83
2022/07/10 09:21:52;;;;;;;0.33;0.33;;;19.30;99.90;;;;;;5036006;28;20213;-83
2022/07/10 09:24:21;;;;;;;0.20;0.20;;;19.30;99.90;;;;;;5032264;28;20182;-83
2022/07/10 09:27:03;;;;;;;0.13;0.13;;;19.20;99.90;;;;;;5035212;28;20190;-83
2022/07/10 09:29:29;;;;;;;0.20;0.20;;;19.90;99.90;;;;;;5035129;28;20179;-83
2022/07/10 09:31:57;;;;;;;0.20;0.20;;;19.70;99.90;;;;;;5034942;28;20203;-83
2022/07/10 09:34:43;;;;;;;0.33;0.33;;;19.70;99.90;;;;;;5036156;28;20674;-82
2022/07/10 09:37:26;;;;;;;0.10;0.10;;;20.30;99.90;;;;;;5033582;28;20179;-83
2022/07/10 09:40:03;;;;;;;0.20;0.20;;;19.80;99.90;;;;;;5033627;28;20222;-83
2022/07/10 09:42:42;;;;;;;0.27;0.27;;;19.90;99.90;;;;;;5033203;28;20205;-83
2022/07/10 09:45:17;;;;;;;0.33;0.33;;;19.70;99.90;;;;;;5032416;28;20201;-83
2022/07/10 09:47:54;;;;;;;0.20;0.20;;;19.10;99.90;;;;;;5032372;28;20181;-83
2022/07/10 09:50:20;;;;;;;0.23;0.23;;;19.20;99.90;;;;;;5033222;28;20246;-84
2022/07/10 09:52:46;;;;;;;1.53;0.63;;;19.00;99.90;;;;;;5039225;28;20714;-83
2022/07/10 09:55:13;;;;;;;0.30;0.30;;;19.30;99.90;;;;;;5033581;28;20194;-83
2022/07/10 09:57:41;;;;;;;0.57;0.57;;;19.20;99.90;;;;;;5032836;28;20185;-83
2022/07/10 10:00:08;;;;;;;0.23;0.23;;;18.80;99.90;;;;;;5031459;28;20217;-83
2022/07/10 10:02:35;;;;;;;0.17;0.17;;;19.50;99.90;;;;;;5032936;28;20206;-83
2022/07/10 10:05:01;;;;;;;0.30;0.30;;;20.00;99.90;;;;;;5031684;28;20656;-84
2022/07/10 10:07:27;;;;;;;0.50;0.30;;;19.70;99.90;;;;;;5033077;28;20194;-83
2022/07/10 10:09:56;;;;;;;0.20;0.20;;;20.20;99.90;;;;;;5031951;28;20228;-83
2022/07/10 10:12:35;;;;;;;0.20;0.20;;;20.40;99.90;;;;;;5033928;28;20210;-83
2022/07/10 10:15:01;;;;;;;0.30;0.30;;;20.20;99.90;;;;;;5033813;28;20178;-84
2022/07/10 10:17:28;;;;;;;0.57;0.20;;;20.40;99.90;;;;;;5031985;28;20261;-84
2022/07/10 10:22:45;;;;;;;0.20;0.20;;;20.60;99.90;;;;;;5032754;28;20272;-83
2022/07/10 10:25:13;;;;;;;0.10;0.10;;;20.90;99.90;;;;;;5038693;28;20190;-84
2022/07/10 10:27:40;;;;;;;0.50;0.40;;;20.60;99.90;;;;;;5031160;28;20274;-84
2022/07/10 10:30:06;;;;;;;0.20;0.20;;;21.10;99.90;;;;;;5034041;28;20248;-83
2022/07/10 10:32:32;;;;;;;0.40;0.30;;;21.40;99.90;;;;;;5032313;28;20201;-83
2022/07/10 10:35:00;;;;;;;3.87;0.97;;;21.30;99.90;;;;;;5033142;28;20193;-83
2022/07/10 10:37:51;;;;;;;0.40;0.40;;;20.80;99.90;;;;;;5032742;28;20293;-83
2022/07/10 10:40:34;;;;;;;2.00;0.70;;;21.00;99.90;;;;;;5033344;28;20218;-83
2022/07/10 10:43:25;;;;;;;1.27;0.70;;;21.10;99.90;;;;;;5032265;28;20185;-83
2022/07/10 10:45:54;;;;;;;0.40;0.30;;;21.00;99.90;;;;;;5032699;28;20224;-84
2022/07/10 10:48:23;;;;;;;0.20;0.20;;;21.30;99.90;;;;;;5034195;28;20217;-84
2022/07/10 10:50:56;;;;;;;0.40;0.40;;;21.70;99.90;;;;;;5034329;28;20236;-83
2022/07/10 10:53:30;;;;;;;0.20;0.20;;;22.00;99.90;;;;;;5033912;28;20189;-84
2022/07/10 10:56:05;;;;;;;0.20;0.20;;;22.00;99.90;;;;;;5049345;28;20190;-84
2022/07/10 10:58:39;;;;;;;0.30;0.30;;;22.10;99.90;;;;;;5058978;28;20205;-84
2022/07/10 11:01:25;;;;;;;0.23;0.23;;;22.50;99.90;;;;;;5036748;28;20239;-84
2022/07/10 11:04:03;;;;;;;0.77;0.77;;;22.50;99.90;;;;;;5037928;28;20166;-83
2022/07/10 11:06:51;;;;;;;0.53;0.53;;;22.10;99.90;;;;;;5037708;28;20189;-84
2022/07/10 11:09:27;;;;;;;0.20;0.20;;;22.30;99.90;;;;;;5041025;28;20186;-82
2022/07/10 11:12:06;;;;;;;0.30;0.30;;;22.00;99.90;;;;;;5043245;28;20264;-83
2022/07/10 11:14:38;;;;;;;0.33;0.33;;;21.60;99.90;;;;;;5033209;28;20807;-84
2022/07/10 11:17:05;;;;;;;1.20;1.13;;;21.20;99.90;;;;;;5033308;28;20205;-83
2022/07/10 11:19:32;;;;;;;0.40;0.30;;;21.10;99.90;;;;;;5033216;28;20205;-82
2022/07/10 11:22:23;;;;;;;0.30;0.30;;;21.70;99.90;;;;;;5037875;28;20201;-82
2022/07/10 11:25:16;;;;;;;0.13;0.13;;;21.90;99.90;;;;;;5035192;28;20316;-83
2022/07/10 11:28:06;;;;;;;0.30;0.30;;;22.20;99.90;;;;;;5036640;28;20269;-83
2022/07/10 11:30:49;;;;;;;0.63;0.63;;;21.70;99.90;;;;;;5034565;28;20560;-83
2022/07/10 11:33:15;;;;;;;0.27;0.27;;;21.40;99.90;;;;;;5032984;28;20192;-83
2022/07/10 11:35:45;;;;;;;0.40;0.40;;;20.90;99.90;;;;;;5035645;28;20210;-83
2022/07/10 11:38:10;;;;;;;0.10;0.10;;;21.30;99.90;;;;;;5036764;28;20209;-83
2022/07/10 11:40:37;;;;;;;0.50;0.50;;;21.00;99.90;;;;;;5040596;28;20248;-82
2022/07/10 11:43:05;;;;;;;0.20;0.20;;;20.30;99.90;;;;;;5041100;28;20300;-83
2022/07/10 11:45:33;;;;;;;0.20;0.20;;;20.80;99.90;;;;;;5040317;28;20193;-83
2022/07/10 11:47:59;;;;;;;0.30;0.30;;;21.20;99.90;;;;;;5041139;28;20196;-82
2022/07/10 11:50:26;;;;;;;0.27;0.27;;;21.70;99.90;;;;;;5042105;28;20316;-82
2022/07/10 11:52:53;;;;;;;0.30;0.30;;;21.80;99.90;;;;;;5039683;28;20201;-83
2022/07/10 11:55:26;;;;;;;1.30;0.40;;;22.10;99.90;;;;;;5034079;28;20235;-83
2022/07/10 11:57:52;;;;;;;0.20;0.20;;;22.10;99.90;;;;;;5035594;28;20191;-83
2022/07/10 12:00:29;;;;;;;0.30;0.30;;;21.60;99.90;;;;;;5032490;28;20220;-83
2022/07/10 12:02:57;;;;;;;0.33;0.33;;;21.50;99.90;;;;;;5036451;28;20268;-83
2022/07/10 12:05:51;;;;;;;0.30;0.30;;;21.60;99.90;;;;;;5032822;28;20197;-83
2022/07/10 12:08:17;;;;;;;0.20;0.20;;;21.90;99.90;;;;;;5035565;28;20194;-83
2022/07/10 12:10:43;;;;;;;0.97;0.30;;;22.60;99.90;;;;;;5034174;28;20214;-83
2022/07/10 12:13:11;;;;;;;0.20;0.20;;;23.10;99.90;;;;;;5035705;28;20276;-83
2022/07/10 12:15:39;;;;;;;0.17;0.17;;;23.10;99.90;;;;;;5034129;28;20182;-83
2022/07/10 12:18:09;;;;;;;0.63;0.63;;;22.20;99.90;;;;;;5033638;28;20608;-83
2022/07/10 12:20:37;;;;;;;0.20;0.20;;;22.10;99.90;;;;;;5047473;28;20217;-83
2022/07/10 12:23:04;;;;;;;0.17;0.17;;;22.30;99.90;;;;;;5056049;28;20190;-83
2022/07/10 12:25:30;;;;;;;0.10;0.10;;;22.70;99.90;;;;;;5032908;28;20200;-83
2022/07/10 12:27:58;;;;;;;0.20;0.20;;;22.10;99.90;;;;;;5034044;28;20229;-83
2022/07/10 12:30:40;;;;;;;0.10;0.10;;;21.50;99.90;;;;;;5032708;28;20197;-83
2022/07/10 12:33:16;;;;;;;0.20;0.20;;;21.60;99.90;;;;;;5033276;28;20963;-83
2022/07/10 12:36:08;;;;;;;0.17;0.17;;;21.40;99.90;;;;;;5033402;28;20193;-83
2022/07/10 12:38:34;;;;;;;0.30;0.30;;;22.30;99.90;;;;;;5034260;28;20679;-83
2022/07/10 12:41:08;;;;;;;0.30;0.30;;;22.00;99.90;;;;;;5034464;28;20263;-83
2022/07/10 12:43:34;;;;;;;0.10;0.10;;;22.10;99.90;;;;;;5036938;28;20644;-83
2022/07/10 12:46:19;;;;;;;0.13;0.13;;;22.30;99.90;;;;;;5037389;28;20224;-83
2022/07/10 12:49:01;;;;;;;0.23;0.23;;;22.60;99.90;;;;;;5039651;28;20543;-83
2022/07/10 12:51:30;;;;;;;0.30;0.30;;;22.30;99.90;;;;;;5033371;28;20236;-83
2022/07/10 12:53:56;;;;;;;0.33;0.33;;;21.50;99.90;;;;;;5034031;28;20717;-83
2022/07/10 12:56:36;;;;;;;0.20;0.20;;;21.20;99.90;;;;;;5034651;28;20189;-83
2022/07/10 12:59:11;;;;;;;0.10;0.10;;;20.90;99.90;;;;;;5033856;28;20281;-83
2022/07/10 13:01:44;;;;;;;0.27;0.27;;;21.10;99.90;;;;;;5040914;28;20217;-83
2022/07/10 13:04:10;;;;;;;0.33;0.23;;;21.40;99.90;;;;;;5034443;28;20256;-83
2022/07/10 13:06:37;;;;;;;0.10;0.10;;;22.10;99.90;;;;;;5033421;28;20182;-83